Terminal Aerodrome Forecast
Issued by NWS Northern Indiana

Home | Current Version | Previous Version | Text Only | Print | Product List | Glossary On
Versions: 1 2 3 4 5 6 7 8 9 10 11 12 13 14 15 16 17
000
FTUS43 KIWX 230842 AAA
TAFFWA
TAF AMD
KFWA 230842Z 2309/2406 00000KT 6SM BR SCT150
      TEMPO 2309/2312 2SM BR SCT008
     FM231300 00000KT 3SM BR SCT008 BKN025
     FM231500 22004KT P6SM SCT040
     FM232300 VRB03KT P6SM SCT250=

USA.gov is the U.S. government's official web portal to all federal, state and local government web resources and services.